• Join FlightAware (Why Join?)
  • Login
  • US Flag 
04:36AM EDT


 

Airport Tracker/Info


-or-


 

Live Flight TrackerFlight Track Log ✈ N5100V ✈ 06-May-2012 ✈ KTOP - KTOP

Flight Track Log - Related Links

Times and Time Zones

All times are in EDT time to prevent confusion due to time zone crossing. See the N5100V flight status page for this flight to view local times or setup timezone preferences in your user account.

Time Position Orientation Groundspeed Altitude Reporting Facility
EDT Latitude Longitude Course Direction KTS MPH feet Rate Location/Type
12:20PM 39.1400 -95.8442 296° West 134 154 2,300  Level Kansas City Center
12:21PM 39.1542 -95.8819 302° West 134 154 2,400 300 Climbing Kansas City Center
12:22PM 39.1683 -95.9117 317° Northwest 127 146 2,900 540 Climbing Kansas City Center
12:23PM 39.1889 -95.9361 88° East 114 131 3,500 540 Climbing Kansas City Center
12:24PM 39.1894 -95.9092 114° Southeast 54 62 4,000 180 Climbing Kansas City Center
12:25PM 39.1792 -95.8797 116° Southeast 73 84 3,900  Descending Kansas City Center
12:26PM 39.1692 -95.8528 112° Southeast 86 99 4,000  Climbing Kansas City Center
12:27PM 39.1592 -95.8203 94° East 91 105 4,000 -60 Level Kansas City Center
12:28PM 39.1572 -95.7883 84° East 86 99 3,900  Descending Kansas City Center
12:29PM 39.1597 -95.7589 106° East 86 99 4,000 -240 Climbing Kansas City Center
12:30PM 39.1539 -95.7319 134° Southeast 86 99 3,500 -900 Descending Kansas City Center
12:31PM 39.1353 -95.7075 134° Southeast 86 99 2,300 -720 Descending Kansas City Center
12:32PM 39.1167 -95.6831 134° Southeast 91 105 2,100 -360 Descending Kansas City Center
12:33PM 39.1003 -95.6614 135° Southeast 91 105 1,600 -480 Descending Kansas City Center
12:34PM 39.0858 -95.6425 132° Southeast 91 105 1,200  Descending Kansas City Center
12:35PM 39.0672 -95.6156 55° Northeast 91 105 1,600 480 Climbing Kansas City Center
12:36PM 39.0800 -95.5917 28° Northeast 77 89 2,200 600 Climbing Kansas City Center
12:37PM 39.1072 -95.5733 57° Northeast 88 101 2,900 540 Climbing Kansas City Center
12:38PM 39.1181 -95.5519 14° North 97 112 3,300 420 Climbing Kansas City Center
12:39PM 39.1492 -95.5419 74° East 90 104 3,800 300 Climbing Kansas City Center
12:40PM 39.1558 -95.5125 341° North 80 92 4,000  Climbing Kansas City Center
12:41PM 39.1683 -95.5181 209° Southwest 35 40 3,900 -60 Descending Kansas City Center
12:42PM 39.1431 -95.5364 204° Southwest 52 60 3,900  Level Kansas City Center
12:43PM 39.1200 -95.5494 48° Northeast 102 117 3,900 -240 Level Kansas City Center
12:44PM 39.1347 -95.5283 270° West 23 26 3,500 -420 Descending Kansas City Center
12:45PM 39.1347 -95.5497 216° Southwest 32 37 3,100 -540 Descending Kansas City Center
12:46PM 39.1178 -95.5656 221° Southwest 76 87 2,500 -660 Descending Kansas City Center
12:47PM 39.0989 -95.5867 221° Southwest 87 100 1,800 -660 Descending Kansas City Center
12:48PM 39.0800 -95.6078 224° Southwest 92 106 1,200 -420 Descending Kansas City Center
12:49PM 39.0653 -95.6261 224° Southwest 92 106 1,000 -240 Descending Kansas City Center